Terminal Aerodrome Forecast
Issued by NWS

Home | Current Version | Previous Version | Text Only | Print | Product List | Glossary On
Versions: 1 2 3 4 5 6 7 8 9 10 11 12 13 14 15 16 17 18 19 20 21 22 23 24 25 26 27 28 29 30 31
520
FTUS44 KEWX 252330
TAFSSF
TAF
KSSF 252330Z 2600/2624 13005KT P6SM SCT040
      TEMPO 2604/2607 4SM TSRA BKN030CB
     FM260700 VRB03KT P6SM BKN050
     FM261700 13005KT P6SM BKN050
     FM261900 14005KT P6SM VCTS BKN040CB=

USA.gov is the U.S. government's official web portal to all federal, state and local government web resources and services.